KCNO/CNO METAR and TAF weather

Enter ICAO airport designator
Station Type Date Time Source
KCNO METAR 2021/09/25 03:53 UTC NOAA

KCNO 250353Z 26004KT 10SM CLR 20/13 A2996 RMK AO2 SLP139 LAST T02000133


Station Type Date Time Source
KCNO Decoded METAR 2021/09/25 03:53 UTC NOAA

CHINO AIRPORT, CA, United States (KCNO) 33-58N 117-38W 207M
Sep 24, 2021 - 11:53 PM EDT / 2021.09.25 0353 UTC
Wind: from the W (260 degrees) at 5 MPH (4 KT):0
Visibility: 10 mile(s):0
Sky conditions: clear
Temperature: 68.0 F (20.0 C)
Dew Point: 55.9 F (13.3 C)
Relative Humidity: 65%
Pressure (altimeter): 29.96 in. Hg (1014 hPa)
ob: KCNO 250353Z 26004KT 10SM CLR 20/13 A2996 RMK AO2 SLP139 LAST T02000133
cycle: 4

Station Type Date Time Source
KCNO TAF UTC NOAA

Error!

Example: see airport list